Terminal Aerodrome Forecast
Issued by NWS

Home | Current Version | Previous Version | Text Only | Print | Product List | Glossary On
Versions: 1 2 3 4 5 6 7 8 9 10 11 12 13 14 15 16 17 18 19 20
000
FTUS43 KMQT 012300
TAFSAW
TAF
KSAW 012320Z 0200/0224 17010G19KT P6SM OVC015
     FM020400 19006KT 4SM -SHRA BR OVC015
     FM021000 18005KT 2SM -DZ BR OVC005
     FM021400 22003KT P6SM OVC010
     FM021800 11004KT P6SM OVC015
      AMD LTD TO CLD VIS AND WIND 0202/0210=

USA.gov is the U.S. government's official web portal to all federal, state and local government web resources and services.